Time;durP1;ratioP1;P1;durP2;ratioP2;P2;SDS_P1;SDS_P2;PMS_P1;PMS_P2;Temp;Humidity;BMP_temperature;BMP_pressure;BME280_temperature;BME280_humidity;BME280_pressure;Samples;Min_cycle;Max_cycle;Signal;HPM_P1;HPM_P2
2021/11/13 00:02:07;;;;;;;52.28;22.05;;;;;;;2.31;100.00;100530.41;5037599;28;20049;-53
2021/11/13 00:04:33;;;;;;;59.90;23.77;;;;;;;2.31;100.00;100519.09;5037281;28;20384;-53
2021/11/13 00:07:00;;;;;;;67.07;24.50;;;;;;;2.31;100.00;100513.88;5029312;28;20045;-53
2021/11/13 00:09:26;;;;;;;59.92;24.60;;;;;;;2.32;100.00;100505.16;5034235;28;20052;-53
2021/11/13 00:11:53;;;;;;;59.85;24.35;;;;;;;2.36;100.00;100507.69;5035609;28;20502;-56
2021/11/13 00:14:20;;;;;;;60.17;23.88;;;;;;;2.36;100.00;100505.06;5029102;28;20053;-51
2021/11/13 00:16:47;;;;;;;61.05;23.77;;;;;;;2.42;100.00;100502.41;5032052;28;20565;-52
2021/11/13 00:19:14;;;;;;;65.22;23.88;;;;;;;2.42;100.00;100491.06;5035944;28;20537;-51
2021/11/13 00:21:41;;;;;;;57.25;24.27;;;;;;;2.43;100.00;100496.28;5043638;28;20044;-51
2021/11/13 00:24:08;;;;;;;56.47;23.35;;;;;;;2.42;100.00;100491.06;5031148;28;20057;-52
2021/11/13 00:26:34;;;;;;;63.20;23.75;;;;;;;2.40;100.00;100478.03;5036312;28;20499;-52
2021/11/13 00:29:01;;;;;;;56.78;23.52;;;;;;;2.42;100.00;100480.63;5025666;28;20044;-52
2021/11/13 00:31:28;;;;;;;59.78;25.45;;;;;;;2.44;100.00;100474.50;5028609;28;20045;-52
2021/11/13 00:33:54;;;;;;;59.60;24.05;;;;;;;2.39;100.00;100476.28;5040017;28;20109;-50
2021/11/13 00:36:21;;;;;;;57.20;24.52;;;;;;;2.49;100.00;100478.81;5034366;28;20041;-53
2021/11/13 00:38:48;;;;;;;59.13;25.73;;;;;;;2.49;100.00;100468.34;5031050;28;20051;-52
2021/11/13 00:41:14;;;;;;;61.20;24.92;;;;;;;2.45;100.00;100470.13;5036679;28;20461;-52
2021/11/13 00:43:41;;;;;;;64.47;27.35;;;;;;;2.42;100.00;100468.41;5040027;28;20518;-52
2021/11/13 00:46:07;;;;;;;69.95;26.23;;;;;;;2.42;100.00;100463.19;5039564;28;20069;-53
2021/11/13 00:48:34;;;;;;;64.35;24.92;;;;;;;2.45;100.00;100467.53;5030519;28;20037;-50
2021/11/13 00:51:00;;;;;;;67.35;24.73;;;;;;;2.47;100.00;100464.00;5040261;28;20045;-52
2021/11/13 00:53:27;;;;;;;64.10;24.30;;;;;;;2.51;100.00;100454.38;5035545;28;20047;-50
2021/11/13 00:55:54;;;;;;;56.95;23.65;;;;;;;2.54;100.00;100458.69;5034532;28;20410;-53
2021/11/13 00:58:20;;;;;;;62.92;24.90;;;;;;;2.55;100.00;100452.56;5031014;28;20047;-57
2021/11/13 01:00:48;;;;;;;61.92;24.40;;;;;;;2.54;100.00;100448.22;5036033;28;20057;-53
2021/11/13 01:03:15;;;;;;;59.17;23.90;;;;;;;2.46;100.00;100441.38;5028416;28;20128;-52
2021/11/13 01:05:41;;;;;;;62.75;24.48;;;;;;;2.44;100.00;100443.13;5027700;28;20403;-52
2021/11/13 01:08:08;;;;;;;62.13;25.13;;;;;;;2.35;100.00;100431.94;5023410;28;20049;-51
2021/11/13 01:10:35;;;;;;;66.40;24.20;;;;;;;2.32;100.00;100439.81;5030302;28;20438;-52
2021/11/13 01:13:01;;;;;;;63.60;23.63;;;;;;;2.33;100.00;100431.97;5029565;28;20053;-51
2021/11/13 01:15:28;;;;;;;65.75;23.90;;;;;;;2.34;100.00;100425.84;5027329;28;20046;-52
2021/11/13 01:17:54;;;;;;;63.13;24.17;;;;;;;2.34;100.00;100425.84;5025774;28;20083;-51
2021/11/13 01:20:22;;;;;;;65.68;23.95;;;;;;;2.34;100.00;100420.63;5026931;28;20045;-52
2021/11/13 01:22:49;;;;;;;67.68;23.80;;;;;;;2.29;100.00;100417.19;5030178;28;20535;-53
2021/11/13 01:25:15;;;;;;;70.00;24.30;;;;;;;2.23;100.00;100411.19;5034858;28;20517;-51
2021/11/13 01:27:42;;;;;;;72.68;25.17;;;;;;;2.16;100.00;100407.78;5024644;28;20055;-52
2021/11/13 01:30:10;;;;;;;71.50;24.50;;;;;;;2.09;100.00;100411.34;5028670;28;20060;-52
2021/11/13 01:32:37;;;;;;;76.60;25.77;;;;;;;2.13;100.00;100409.56;5034633;28;20044;-53
2021/11/13 01:35:06;;;;;;;71.22;24.30;;;;;;;2.13;100.00;100418.28;5033709;28;20047;-53
2021/11/13 01:37:33;;;;;;;71.97;24.92;;;;;;;2.13;100.00;100417.41;5035351;28;20046;-51
2021/11/13 01:40:01;;;;;;;70.70;24.80;;;;;;;2.17;100.00;100426.94;5030521;28;20043;-52
2021/11/13 01:42:30;;;;;;;65.15;24.38;;;;;;;2.18;100.00;100424.31;5030749;28;20049;-52
2021/11/13 01:44:57;;;;;;;65.07;23.55;;;;;;;2.21;100.00;100432.09;5035974;28;20052;-50
2021/11/13 01:47:23;;;;;;;60.58;22.38;;;;;;;2.30;100.00;100436.34;5035494;28;20056;-51
2021/11/13 01:49:51;;;;;;;64.47;24.33;;;;;;;2.23;100.00;100439.91;5028982;28;20041;-50
2021/11/13 01:52:18;;;;;;;62.60;25.17;;;;;;;2.16;100.00;100435.66;5033553;28;20048;-52
2021/11/13 01:54:44;;;;;;;68.82;25.77;;;;;;;2.16;100.00;100435.66;5039972;28;20045;-51
2021/11/13 01:57:20;;;;;;;67.45;24.50;;;;;;;2.13;100.00;100439.19;5027718;28;20099;-51
2021/11/13 01:59:49;;;;;;;72.18;24.75;;;;;;;2.20;100.00;100438.22;5032423;28;20047;-51
2021/11/13 02:02:16;;;;;;;65.55;23.52;;;;;;;2.23;100.00;100437.31;5033032;28;20407;-52
2021/11/13 02:04:42;;;;;;;60.45;23.70;;;;;;;2.26;100.00;100437.28;5044921;28;20048;-55
2021/11/13 02:07:10;;;;;;;64.80;24.52;;;;;;;2.21;100.00;100431.22;5036847;28;20914;-52
2021/11/13 02:09:37;;;;;;;60.80;24.40;;;;;;;2.25;100.00;100427.69;5029609;28;20045;-52
2021/11/13 02:12:04;;;;;;;72.20;26.35;;;;;;;2.20;100.00;100422.56;5035624;28;20049;-53
2021/11/13 02:14:30;;;;;;;64.80;24.70;;;;;;;2.07;100.00;100402.66;5030769;28;20045;-51
2021/11/13 02:16:57;;;;;;;65.50;24.75;;;;;;;2.20;100.00;100417.34;5046335;28;20041;-52
2021/11/13 02:19:24;;;;;;;74.50;26.52;;;;;;;2.17;100.00;100417.38;5031665;28;20045;-52
2021/11/13 02:21:51;;;;;;;68.43;26.42;;;;;;;2.17;100.00;100412.13;5031455;28;20051;-51
2021/11/13 02:24:17;;;;;;;73.22;27.48;;;;;;;2.21;100.00;100410.31;5033258;28;20047;-52
2021/11/13 02:26:44;;;;;;;70.95;25.48;;;;;;;2.22;100.00;100406.84;5043782;28;20064;-52
2021/11/13 02:29:10;;;;;;;76.28;26.15;;;;;;;2.26;100.00;100408.53;5028218;28;20052;-52
2021/11/13 02:31:40;;;;;;;77.50;26.48;;;;;;;2.28;100.00;100401.53;5034946;28;20052;-52
2021/11/13 02:34:09;;;;;;;68.95;24.65;;;;;;;2.33;100.00;100407.59;5037309;28;20056;-52
2021/11/13 02:36:36;;;;;;;74.85;26.13;;;;;;;2.27;100.00;100405.03;5032152;28;20048;-53
2021/11/13 02:39:07;;;;;;;75.50;26.95;;;;;;;2.27;100.00;100424.19;5030376;28;20041;-53
2021/11/13 02:41:34;;;;;;;75.65;26.58;;;;;;;2.30;100.00;100418.06;5029209;28;20471;-53
2021/11/13 02:44:02;;;;;;;78.72;27.02;;;;;;;2.28;100.00;100405.03;5033952;28;20047;-53
2021/11/13 02:46:28;;;;;;;67.15;24.90;;;;;;;2.29;100.00;100391.06;5028805;28;20045;-51
2021/11/13 02:48:56;;;;;;;75.22;25.77;;;;;;;2.31;100.00;100407.59;5029536;28;20052;-53
2021/11/13 02:51:23;;;;;;;67.75;25.95;;;;;;;2.28;100.00;100405.03;5029673;28;20125;-51
2021/11/13 02:53:51;;;;;;;67.22;24.55;;;;;;;2.32;100.00;100416.31;5034544;28;20086;-53
2021/11/13 02:56:19;;;;;;;61.58;25.25;;;;;;;2.31;100.00;100414.56;5032420;28;20648;-52
2021/11/13 02:58:45;;;;;;;67.47;25.80;;;;;;;2.33;100.00;100418.91;5025876;28;20048;-53
2021/11/13 03:01:14;;;;;;;71.88;27.02;;;;;;;2.29;100.00;100408.50;5032392;28;20157;-57
2021/11/13 03:03:41;;;;;;;70.30;25.58;;;;;;;2.30;100.00;100412.84;5034708;28;20087;-52
2021/11/13 03:06:11;;;;;;;74.30;26.63;;;;;;;2.32;100.00;100401.50;5030862;28;20507;-50
2021/11/13 03:08:39;;;;;;;81.93;27.90;;;;;;;2.38;100.00;100400.53;5028071;28;20491;-53
2021/11/13 03:11:10;;;;;;;74.93;25.77;;;;;;;2.39;100.00;100392.66;5031262;28;20071;-53
2021/11/13 03:13:39;;;;;;;74.75;25.88;;;;;;;2.40;100.00;100391.78;5027802;28;20045;-53
2021/11/13 03:16:07;;;;;;;74.88;26.33;;;;;;;2.44;100.00;100403.94;5035162;28;20505;-54
2021/11/13 03:18:34;;;;;;;72.55;26.33;;;;;;;2.45;100.00;100396.94;5031758;28;20060;-54
2021/11/13 03:21:05;;;;;;;76.85;27.00;;;;;;;2.34;100.00;100363.13;5033508;28;20040;-51
2021/11/13 03:23:37;;;;;;;78.57;26.08;;;;;;;2.47;100.00;100380.38;5032322;28;20384;-52
2021/11/13 03:26:05;;;;;;;75.90;26.02;;;;;;;2.44;100.00;100367.34;5034900;28;20048;-54
2021/11/13 03:28:36;;;;;;;91.20;29.33;;;;;;;2.33;100.00;100364.03;5028417;28;20056;-51
2021/11/13 03:31:04;;;;;;;93.68;29.77;;;;;;;2.28;100.00;100355.38;5038232;28;20453;-52
2021/11/13 03:33:32;;;;;;;88.75;29.40;;;;;;;2.30;100.00;100360.59;5040290;28;20045;-52
2021/11/13 03:35:59;;;;;;;88.22;29.50;;;;;;;2.32;100.00;100359.69;5028861;28;20049;-53
2021/11/13 03:38:26;;;;;;;80.85;28.52;;;;;;;2.35;100.00;100366.63;5034629;28;20083;-51
2021/11/13 03:40:53;;;;;;;84.53;29.98;;;;;;;2.38;100.00;100364.81;5029028;28;20041;-53
2021/11/13 03:43:19;;;;;;;81.75;28.52;;;;;;;2.43;100.00;100362.13;5030427;28;20061;-50
2021/11/13 03:45:48;;;;;;;88.82;29.45;;;;;;;2.44;100.00;100364.72;5039177;28;20513;-51
2021/11/13 03:48:16;;;;;;;87.05;29.77;;;;;;;2.47;100.00;100361.22;5037266;28;20041;-51
2021/11/13 03:50:42;;;;;;;78.32;27.10;;;;;;;2.51;100.00;100359.41;5034263;28;20491;-52
2021/11/13 03:53:09;;;;;;;80.18;27.88;;;;;;;2.53;100.00;100371.56;5036959;28;20556;-52
2021/11/13 03:55:36;;;;;;;84.38;28.90;;;;;;;2.51;100.00;100354.19;5032684;28;20043;-50
2021/11/13 03:58:03;;;;;;;86.55;29.90;;;;;;;2.54;100.00;100370.66;5036207;28;20045;-51
2021/11/13 04:00:30;;;;;;;80.10;28.20;;;;;;;2.55;100.00;100377.63;5034011;28;20045;-52
2021/11/13 04:02:57;;;;;;;86.32;29.38;;;;;;;2.55;100.00;100375.00;5032940;28;20041;-51
2021/11/13 04:05:24;;;;;;;89.57;29.77;;;;;;;2.54;100.00;100367.19;5031227;28;20309;-51
2021/11/13 04:07:51;;;;;;;84.95;29.73;;;;;;;2.56;100.00;100368.03;5033288;28;20378;-52
2021/11/13 04:10:18;;;;;;;91.95;31.00;;;;;;;2.56;100.00;100368.91;5025773;28;20417;-52
2021/11/13 04:12:45;;;;;;;93.45;31.67;;;;;;;2.54;100.00;100368.06;5032042;28;20061;-51
2021/11/13 04:15:13;;;;;;;81.13;29.67;;;;;;;2.52;100.00;100367.22;5035866;28;20048;-52
2021/11/13 04:17:41;;;;;;;82.15;30.02;;;;;;;2.51;100.00;100356.81;5036198;28;20052;-53
2021/11/13 04:20:09;;;;;;;80.80;29.30;;;;;;;2.57;100.00;100362.78;5031355;28;20041;-53
2021/11/13 04:22:36;;;;;;;88.32;29.83;;;;;;;2.56;100.00;100362.81;5035157;28;20056;-53
2021/11/13 04:25:03;;;;;;;85.35;30.10;;;;;;;2.60;100.00;100362.75;5033469;28;20049;-52
2021/11/13 04:27:30;;;;;;;88.72;30.50;;;;;;;2.59;100.00;100360.16;5033578;28;20140;-52
2021/11/13 04:29:56;;;;;;;79.38;29.60;;;;;;;2.61;100.00;100345.31;5026580;28;20045;-52
2021/11/13 04:32:28;;;;;;;87.20;30.52;;;;;;;2.60;100.00;100354.03;5027418;28;20056;-52
2021/11/13 04:37:24;;;;;;;77.43;30.20;;;;;;;2.66;100.00;100357.44;5028062;28;20476;-53
2021/11/13 04:39:51;;;;;;;83.88;30.52;;;;;;;2.68;100.00;100355.63;5029723;28;20040;-53
2021/11/13 04:42:17;;;;;;;83.22;30.13;;;;;;;2.70;100.00;100350.38;5031928;28;20136;-51
2021/11/13 04:44:45;;;;;;;85.28;30.38;;;;;;;2.67;100.00;100340.00;5032490;28;20073;-51
2021/11/13 04:47:12;;;;;;;87.63;30.60;;;;;;;2.52;100.00;100316.72;5031801;28;20045;-51
2021/11/13 04:49:39;;;;;;;92.38;30.65;;;;;;;2.58;100.00;100311.38;5032382;28;20050;-52
2021/11/13 04:52:07;;;;;;;83.00;28.20;;;;;;;2.61;100.00;100299.13;5031826;28;20049;-53
2021/11/13 04:54:35;;;;;;;84.10;30.02;;;;;;;2.60;100.00;100292.16;5033701;28;20053;-52
2021/11/13 04:57:02;;;;;;;92.93;29.13;;;;;;;2.61;100.00;100300.88;5029463;28;20038;-52
2021/11/13 04:59:28;;;;;;;88.90;30.05;;;;;;;2.61;100.00;100320.03;5025962;28;20060;-52
2021/11/13 05:01:55;;;;;;;92.40;31.20;;;;;;;2.67;100.00;100343.47;5025288;28;20517;-52
2021/11/13 05:04:21;;;;;;;92.20;28.42;;;;;;;2.71;100.00;100334.69;5031050;28;20041;-51
2021/11/13 05:06:48;;;;;;;101.10;31.00;;;;;;;2.69;100.00;100323.38;5035549;28;20054;-52
2021/11/13 05:09:14;;;;;;;83.93;29.10;;;;;;;2.70;100.00;100327.72;5028186;28;20275;-53
2021/11/13 05:11:41;;;;;;;89.90;29.38;;;;;;;2.74;100.00;100324.19;5033029;28;20391;-53
2021/11/13 05:14:07;;;;;;;80.93;28.70;;;;;;;2.75;100.00;100338.13;5034966;28;20048;-52
2021/11/13 05:16:34;;;;;;;80.88;27.33;;;;;;;2.78;100.00;100343.31;5038311;28;20418;-52
2021/11/13 05:19:01;;;;;;;79.60;28.63;;;;;;;2.78;100.00;100327.59;5039904;28;20040;-52
2021/11/13 05:21:27;;;;;;;77.18;27.27;;;;;;;2.80;100.00;100337.16;5028705;28;20041;-52
2021/11/13 05:23:54;;;;;;;87.80;29.55;;;;;;;2.80;100.00;100341.53;5038490;28;20055;-53
2021/11/13 05:26:20;;;;;;;101.68;28.30;;;;;;;2.65;100.00;100299.94;5039440;28;20512;-53
2021/11/13 05:28:48;;;;;;;77.30;27.40;;;;;;;2.73;100.00;100326.81;5029037;28;20054;-51
2021/11/13 05:31:14;;;;;;;93.38;28.75;;;;;;;2.76;100.00;100332.00;5020595;28;20052;-52
2021/11/13 05:33:42;;;;;;;76.75;26.77;;;;;;;2.70;100.00;100326.84;5036957;28;20045;-53
2021/11/13 05:36:08;;;;;;;76.38;27.38;;;;;;;2.58;100.00;100299.16;5028677;28;20466;-53
2021/11/13 05:38:35;;;;;;;89.40;28.58;;;;;;;2.71;100.00;100320.75;5028980;28;20053;-52
2021/11/13 05:41:01;;;;;;;82.18;27.40;;;;;;;2.71;100.00;100312.91;5029188;28;20045;-52
2021/11/13 05:43:28;;;;;;;81.28;28.15;;;;;;;2.77;100.00;100315.41;5032224;28;20810;-53
2021/11/13 05:45:55;;;;;;;96.32;27.40;;;;;;;2.78;100.00;100319.78;5035088;28;20037;-52
2021/11/13 05:48:22;;;;;;;88.80;28.63;;;;;;;2.78;100.00;100304.94;5033984;28;20053;-52
2021/11/13 05:50:48;;;;;;;94.60;28.58;;;;;;;2.79;100.00;100304.06;5036885;28;20492;-52
2021/11/13 05:53:15;;;;;;;84.28;28.33;;;;;;;2.67;100.00;100282.47;5034403;28;20136;-52
2021/11/13 05:55:41;;;;;;;99.75;28.98;;;;;;;2.79;100.00;100311.91;5035502;28;20507;-52
2021/11/13 05:58:14;;;;;;;88.22;29.02;;;;;;;2.80;100.00;100316.25;5031868;28;20053;-51
2021/11/13 06:00:41;;;;;;;104.47;29.90;;;;;;;2.81;100.00;100327.56;5027308;28;20080;-52
2021/11/13 06:03:07;;;;;;;74.88;27.25;;;;;;;2.79;100.00;100326.72;5037746;28;20053;-52
2021/11/13 06:05:34;;;;;;;78.22;28.13;;;;;;;2.79;100.00;100316.25;5031155;28;20049;-52
2021/11/13 06:08:00;;;;;;;91.03;29.30;;;;;;;2.80;100.00;100323.22;5033798;28;20547;-57
2021/11/13 06:10:27;;;;;;;90.18;28.13;;;;;;;2.81;100.00;100336.28;5029561;28;20072;-51
2021/11/13 06:12:53;;;;;;;82.80;28.55;;;;;;;2.82;100.00;100334.53;5035130;28;20060;-50
2021/11/13 06:15:20;;;;;;;83.85;29.63;;;;;;;2.81;100.00;100332.81;5029725;28;20045;-54
2021/11/13 06:17:46;;;;;;;98.32;30.88;;;;;;;2.76;100.00;100342.47;5033444;28;20045;-52
2021/11/13 06:20:13;;;;;;;108.20;30.73;;;;;;;2.69;100.00;100348.66;5028181;28;20056;-52
2021/11/13 06:22:40;;;;;;;96.93;30.65;;;;;;;2.62;100.00;100342.69;5030497;28;20057;-52
2021/11/13 06:25:08;;;;;;;92.85;29.45;;;;;;;2.65;100.00;100347.00;5032002;28;20049;-52
2021/11/13 06:27:36;;;;;;;98.68;30.65;;;;;;;2.67;100.00;100347.84;5040069;28;20138;-53
2021/11/13 06:30:05;;;;;;;97.78;30.77;;;;;;;2.72;100.00;100340.78;5027214;28;20048;-53
2021/11/13 06:32:31;;;;;;;90.00;29.83;;;;;;;2.59;100.00;100321.81;5028854;28;20042;-52
2021/11/13 06:34:58;;;;;;;107.32;31.48;;;;;;;2.71;100.00;100341.66;5029207;28;20056;-54
2021/11/13 06:37:26;;;;;;;80.15;28.40;;;;;;;2.75;100.00;100343.34;5029862;28;20054;-52
2021/11/13 06:39:53;;;;;;;78.75;28.60;;;;;;;2.78;100.00;100344.16;5028476;28;20057;-52
2021/11/13 06:42:19;;;;;;;85.47;29.13;;;;;;;2.82;100.00;100355.44;5033622;28;20403;-51
2021/11/13 06:44:46;;;;;;;90.53;30.42;;;;;;;2.85;100.00;100354.50;5035807;28;20045;-52
2021/11/13 06:47:12;;;;;;;89.18;31.10;;;;;;;2.84;100.00;100358.88;5039472;28;20052;-51
2021/11/13 06:49:39;;;;;;;100.60;30.85;;;;;;;2.83;100.00;100370.25;5033847;28;20049;-53
2021/11/13 06:52:07;;;;;;;89.97;30.17;;;;;;;2.80;100.00;100372.91;5035746;28;20080;-53
2021/11/13 06:54:34;;;;;;;100.07;30.20;;;;;;;2.84;100.00;100390.25;5032706;28;20391;-52
2021/11/13 06:57:00;;;;;;;88.28;29.90;;;;;;;2.85;100.00;100391.97;5034361;28;20049;-52
2021/11/13 06:59:27;;;;;;;84.82;29.55;;;;;;;2.88;100.00;100394.56;5029565;28;20633;-51
2021/11/13 07:01:53;;;;;;;77.47;28.80;;;;;;;2.90;100.00;100394.53;5029417;28;20041;-53
2021/11/13 07:04:20;;;;;;;72.10;27.85;;;;;;;2.91;100.00;100397.13;5028356;28;20049;-53
2021/11/13 07:06:47;;;;;;;77.82;28.05;;;;;;;2.98;100.00;100400.53;5028534;28;20482;-57
2021/11/13 07:09:13;;;;;;;74.13;28.23;;;;;;;3.04;100.00;100401.28;5027424;28;20045;-52
2021/11/13 07:11:40;;;;;;;62.90;24.92;;;;;;;3.05;100.00;100395.16;5027414;28;20046;-53
2021/11/13 07:14:07;;;;;;;74.28;28.40;;;;;;;2.97;100.00;100396.19;5029334;28;20045;-53
2021/11/13 07:16:33;;;;;;;66.13;26.88;;;;;;;3.00;100.00;100391.75;5029418;28;20056;-52
2021/11/13 07:19:01;;;;;;;66.57;26.90;;;;;;;3.04;100.00;100385.56;5032341;28;20045;-52
2021/11/13 07:21:27;;;;;;;65.30;27.88;;;;;;;3.07;100.00;100397.75;5026993;28;20510;-52
2021/11/13 07:23:55;;;;;;;64.90;27.67;;;;;;;3.08;100.00;100387.25;5028163;28;20084;-51
2021/11/13 07:26:21;;;;;;;69.90;27.55;;;;;;;3.07;100.00;100387.28;5011907;28;20053;-51
2021/11/13 07:28:50;;;;;;;65.78;26.90;;;;;;;3.12;100.00;100388.94;5033418;28;20045;-52
2021/11/13 07:31:18;;;;;;;66.85;27.77;;;;;;;3.19;100.00;100389.69;5029943;28;20048;-51
2021/11/13 07:33:46;;;;;;;71.85;28.50;;;;;;;3.12;100.00;100391.56;5032758;28;20041;-54
2021/11/13 07:36:13;;;;;;;70.70;27.63;;;;;;;2.93;100.00;100376.19;5032854;28;20053;-51
2021/11/13 07:38:39;;;;;;;64.72;27.30;;;;;;;3.07;100.00;100396.00;5030096;28;20041;-52
2021/11/13 07:41:08;;;;;;;66.53;26.85;;;;;;;3.09;100.00;100391.59;5029193;28;20064;-52
2021/11/13 07:43:34;;;;;;;69.57;27.88;;;;;;;3.08;100.00;100389.88;5033891;28;20044;-52
2021/11/13 07:46:01;;;;;;;72.10;28.05;;;;;;;3.08;100.00;100389.88;5033930;28;20241;-51
2021/11/13 07:48:27;;;;;;;71.68;28.33;;;;;;;2.99;100.00;100368.25;5033216;28;20075;-51
2021/11/13 07:50:54;;;;;;;69.30;27.25;;;;;;;3.21;100.00;100387.91;5028511;28;20041;-52
2021/11/13 07:53:20;;;;;;;66.07;27.83;;;;;;;3.24;100.00;100394.84;5031699;28;20049;-52
2021/11/13 07:55:47;;;;;;;66.78;28.05;;;;;;;3.32;100.00;100383.34;5033147;28;20049;-52
2021/11/13 07:58:16;;;;;;;64.20;27.58;;;;;;;3.32;100.00;100387.72;5036417;28;20045;-53
2021/11/13 08:00:45;;;;;;;64.22;27.52;;;;;;;3.25;100.00;100383.50;5033421;28;20163;-52
2021/11/13 08:03:12;;;;;;;67.18;27.95;;;;;;;3.20;100.00;100380.09;5032218;28;20065;-51
2021/11/13 08:05:38;;;;;;;67.70;26.92;;;;;;;3.15;100.00;100386.25;5042629;28;20079;-51
2021/11/13 08:08:06;;;;;;;72.13;29.15;;;;;;;3.07;100.00;100368.97;5034477;28;20048;-51
2021/11/13 08:10:36;;;;;;;70.38;28.85;;;;;;;3.22;100.00;100373.06;5032636;28;20052;-53
2021/11/13 08:13:03;;;;;;;67.60;28.48;;;;;;;3.26;100.00;100375.63;5031420;28;20048;-52
2021/11/13 08:15:30;;;;;;;67.18;28.38;;;;;;;3.22;100.00;100373.94;5029982;28;20041;-53
2021/11/13 08:17:56;;;;;;;73.82;28.65;;;;;;;3.23;100.00;100375.66;5033835;28;20056;-52
2021/11/13 08:20:23;;;;;;;72.93;29.42;;;;;;;3.25;100.00;100373.91;5027901;28;20426;-51
2021/11/13 08:22:50;;;;;;;71.00;29.02;;;;;;;3.28;100.00;100373.84;5027826;28;20049;-55
2021/11/13 08:25:17;;;;;;;68.40;28.45;;;;;;;3.34;100.00;100385.94;5028251;28;20053;-51
2021/11/13 08:27:44;;;;;;;67.95;28.35;;;;;;;3.37;100.00;100385.88;5031845;28;20060;-53
2021/11/13 08:30:12;;;;;;;70.07;29.23;;;;;;;3.40;100.00;100378.84;5026757;28;20056;-53
2021/11/13 08:32:40;;;;;;;63.65;27.80;;;;;;;3.46;100.00;100383.13;5027960;28;20460;-52
2021/11/13 08:35:08;;;;;;;65.53;28.52;;;;;;;3.47;100.00;100377.84;5030136;28;20049;-51
2021/11/13 08:37:35;;;;;;;66.25;30.45;;;;;;;3.48;100.00;100379.56;5032894;28;20443;-53
2021/11/13 08:40:02;;;;;;;64.10;27.88;;;;;;;3.47;100.00;100384.81;5031062;28;20053;-57
2021/11/13 08:42:29;;;;;;;63.65;28.40;;;;;;;3.46;100.00;100380.50;5026810;28;20078;-51
2021/11/13 08:44:56;;;;;;;64.78;29.15;;;;;;;3.53;100.00;100376.88;5030916;28;20055;-51
2021/11/13 08:47:23;;;;;;;71.57;29.80;;;;;;;3.52;100.00;100375.16;5030052;28;20546;-51
2021/11/13 08:49:50;;;;;;;71.95;30.02;;;;;;;3.51;100.00;100374.28;5032566;28;20047;-52
2021/11/13 08:52:18;;;;;;;69.55;31.20;;;;;;;3.50;100.00;100380.41;5028281;28;20056;-52
2021/11/13 08:54:46;;;;;;;70.00;29.00;;;;;;;3.43;100.00;100373.56;5036070;28;20378;-52
2021/11/13 08:57:14;;;;;;;71.30;30.63;;;;;;;3.44;100.00;100377.06;5031656;28;20388;-52
2021/11/13 08:59:41;;;;;;;74.90;30.80;;;;;;;3.45;100.00;100376.16;5027812;28;20137;-52
2021/11/13 09:02:11;;;;;;;75.20;30.02;;;;;;;3.49;100.00;100375.19;5032771;28;20044;-52
2021/11/13 09:04:40;;;;;;;70.30;30.38;;;;;;;3.52;100.00;100376.00;5040472;28;20088;-52
2021/11/13 09:07:08;;;;;;;73.00;31.10;;;;;;;3.55;100.00;100380.31;5039531;28;20132;-51
2021/11/13 09:09:37;;;;;;;76.88;31.65;;;;;;;3.59;100.00;100365.44;5034392;28;20046;-53
2021/11/13 09:12:15;;;;;;;70.45;31.60;;;;;;;3.63;100.00;100377.53;5031605;28;20041;-52
2021/11/13 09:14:42;;;;;;;73.35;30.75;;;;;;;3.65;100.00;100368.78;5034737;28;20045;-51
2021/11/13 09:17:11;;;;;;;70.85;31.98;;;;;;;3.68;100.00;100360.00;5033428;28;20407;-52
2021/11/13 09:19:38;;;;;;;62.13;28.20;;;;;;;3.77;100.00;100363.31;5035590;28;20042;-51
2021/11/13 09:22:05;;;;;;;65.57;29.33;;;;;;;3.82;100.00;100357.97;5033882;28;20053;-50
2021/11/13 09:24:32;;;;;;;57.05;28.00;;;;;;;3.86;100.00;100359.66;5035975;28;20041;-52
2021/11/13 09:26:59;;;;;;;62.47;29.88;;;;;;;3.88;100.00;100357.84;5036583;28;20041;-54
2021/11/13 09:29:25;;;;;;;65.32;29.60;;;;;;;3.96;100.00;100352.44;5032894;28;20045;-50
2021/11/13 09:31:52;;;;;;;65.28;29.38;;;;;;;4.00;100.00;100351.50;5027520;28;20049;-51
2021/11/13 09:34:20;;;;;;;61.60;29.35;;;;;;;4.02;100.00;100355.81;5033933;28;20408;-52
2021/11/13 09:36:48;;;;;;;58.38;28.42;;;;;;;4.08;100.00;100353.06;5031656;28;20133;-50
2021/11/13 09:39:16;;;;;;;64.35;28.67;;;;;;;4.11;100.00;100349.50;5039845;28;20515;-51
2021/11/13 09:41:44;;;;;;;60.58;27.80;;;;;;;4.09;100.00;100348.69;5034066;28;20056;-53
2021/11/13 09:44:11;;;;;;;59.30;27.40;;;;;;;4.12;100.00;100341.63;5034289;28;20050;-52
2021/11/13 09:46:38;;;;;;;60.67;29.42;;;;;;;4.15;100.00;100343.31;5032207;28;20519;-52
2021/11/13 09:49:05;;;;;;;58.17;27.35;;;;;;;4.12;100.00;100339.00;5035023;28;20471;-51
2021/11/13 09:51:32;;;;;;;60.17;28.10;;;;;;;4.16;100.00;100345.91;5028130;28;20052;-53
2021/11/13 09:54:02;;;;;;;;;;;;;;;4.17;100.00;100345.00;5035084;28;20111;-52
2021/11/13 09:56:30;;;;;;;56.72;28.05;;;;;;;4.15;100.00;100340.69;5042329;28;19950;-51
2021/11/13 09:58:56;;;;;;;53.70;27.63;;;;;;;4.15;100.00;100343.31;5037419;28;20048;-52
2021/11/13 10:01:23;;;;;;;55.28;28.23;;;;;;;4.16;100.00;100332.78;5033945;28;20318;-52
2021/11/13 10:03:51;;;;;;;51.80;28.38;;;;;;;4.18;100.00;100336.25;5037263;28;20115;-51
2021/11/13 10:06:19;;;;;;;53.97;28.23;;;;;;;4.19;100.00;100335.34;5031836;28;20141;-56
2021/11/13 10:08:49;;;;;;;50.70;27.88;;;;;;;4.21;100.00;100330.09;5040023;28;20053;-52
2021/11/13 10:11:18;;;;;;;53.88;29.98;;;;;;;4.22;100.00;100337.91;5030701;28;20483;-51
2021/11/13 10:13:49;;;;;;;57.30;29.00;;;;;;;4.25;100.00;100338.75;5039877;28;20055;-52
2021/11/13 10:16:40;;;;;;;51.00;28.30;;;;;;;4.29;100.00;100329.91;5014690;28;20042;-52
2021/11/13 10:19:16;;;;;;;53.80;28.38;;;;;;;4.30;100.00;100326.38;5022137;28;20554;-52
2021/11/13 10:21:46;;;;;;;50.42;28.10;;;;;;;4.31;100.00;100326.34;5030156;28;20037;-52
2021/11/13 10:24:19;;;;;;;53.60;28.52;;;;;;;4.32;100.00;100322.84;5037323;28;20055;-55
2021/11/13 10:26:58;;;;;;;53.45;28.10;;;;;;;4.39;100.00;100318.31;5041469;28;20052;-52
2021/11/13 10:29:38;;;;;;;50.17;27.73;;;;;;;4.41;100.00;100324.38;5039708;28;20049;-55
2021/11/13 10:32:08;;;;;;;46.88;26.50;;;;;;;4.45;100.00;100315.53;5032254;28;20048;-52
2021/11/13 10:34:46;;;;;;;47.28;26.98;;;;;;;4.46;100.00;100310.25;5040033;28;20120;-54
2021/11/13 10:37:23;;;;;;;52.00;28.30;;;;;;;4.43;100.00;100320.81;5036902;28;20049;-52
2021/11/13 10:39:59;;;;;;;54.10;28.75;;;;;;;4.35;100.00;100309.66;5039519;28;20068;-52
2021/11/13 10:42:26;;;;;;;53.83;28.25;;;;;;;4.35;100.00;100319.28;5023471;28;20061;-52
2021/11/13 10:45:00;;;;;;;55.38;28.88;;;;;;;4.38;100.00;100311.34;5017661;28;20420;-50
2021/11/13 10:47:31;;;;;;;50.78;28.35;;;;;;;4.40;100.00;100305.19;5016197;28;20045;-52
2021/11/13 10:50:26;;;;;;;48.70;28.10;;;;;;;4.43;100.00;100293.75;5016678;28;20045;-51
2021/11/13 10:53:08;;;;;;;50.95;28.52;;;;;;;4.46;100.00;100305.03;5011918;28;20052;-52
2021/11/13 10:55:42;;;;;;;52.80;28.77;;;;;;;4.52;100.00;100297.03;5018289;28;20081;-52
2021/11/13 10:58:34;;;;;;;52.30;29.88;;;;;;;4.57;100.00;100291.66;5012404;28;20057;-52
2021/11/13 11:01:06;;;;;;;54.70;28.85;;;;;;;4.57;100.00;100287.25;5019323;28;20046;-52
2021/11/13 11:03:36;;;;;;;53.08;29.08;;;;;;;4.58;100.00;100288.13;5015018;28;20038;-52
2021/11/13 11:06:04;;;;;;;51.13;28.25;;;;;;;4.66;100.00;100290.56;5026005;28;20045;-52
2021/11/13 11:08:33;;;;;;;45.78;26.98;;;;;;;4.71;100.00;100286.94;5016213;28;20048;-53
2021/11/13 11:11:02;;;;;;;54.83;29.10;;;;;;;4.70;100.00;100287.00;5009731;28;20450;-53
2021/11/13 11:13:48;;;;;;;50.80;28.45;;;;;;;4.70;100.00;100289.63;5008575;28;20372;-53
2021/11/13 11:16:24;;;;;;;50.42;28.55;;;;;;;4.74;100.00;100284.22;5015047;28;20049;-51